Time;durP1;ratioP1;P1;durP2;ratioP2;P2;SDS_P1;SDS_P2;PMS_P1;PMS_P2;Temp;Humidity;BMP_temperature;BMP_pressure;BME280_temperature;BME280_humidity;BME280_pressure;Samples;Min_cycle;Max_cycle;Signal;HPM_P1;HPM_P2
2022/08/08 00:02:11;;;;;;;8.77;6.57;;;15.50;48.30;;;;;;5062401;28;46501;-67
2022/08/08 00:04:48;;;;;;;8.23;5.80;;;15.50;48.60;;;;;;5060363;28;46609;-67
2022/08/08 00:07:17;;;;;;;9.53;6.30;;;15.40;48.70;;;;;;5061118;28;46551;-67
2022/08/08 00:09:50;;;;;;;8.03;6.37;;;15.40;48.90;;;;;;5063275;28;46267;-67
2022/08/08 00:12:22;;;;;;;9.07;5.60;;;15.40;49.10;;;;;;5063758;28;46313;-67
2022/08/08 00:15:10;;;;;;;8.80;6.20;;;15.40;49.20;;;;;;5061083;28;46425;-67
2022/08/08 00:17:47;;;;;;;8.70;5.70;;;15.40;49.80;;;;;;5062598;28;46369;-67
2022/08/08 00:20:18;;;;;;;7.97;5.80;;;15.30;49.60;;;;;;5060985;28;46486;-67
2022/08/08 00:22:47;;;;;;;10.13;5.43;;;15.20;49.80;;;;;;5063327;28;45764;-67
2022/08/08 00:25:23;;;;;;;7.27;5.63;;;15.10;50.00;;;;;;5061902;28;46362;-67
2022/08/08 00:27:53;;;;;;;15.03;6.20;;;15.10;50.60;;;;;;5060165;28;46042;-67
2022/08/08 00:30:19;;;;;;;15.40;5.70;;;14.90;50.90;;;;;;5061826;28;46475;-67
2022/08/08 00:33:00;;;;;;;8.30;5.67;;;14.80;51.30;;;;;;5063254;28;46416;-67
2022/08/08 00:35:47;;;;;;;11.93;6.37;;;14.80;51.70;;;;;;5061804;28;46393;-67
2022/08/08 00:38:35;;;;;;;7.93;5.90;;;14.60;51.80;;;;;;5061289;28;47377;-67
2022/08/08 00:41:39;;;;;;;12.03;5.90;;;14.60;52.40;;;;;;5062204;28;46401;-67
2022/08/08 00:44:17;;;;;;;8.27;5.10;;;14.50;52.60;;;;;;5028378;28;46480;-67
2022/08/08 00:46:57;;;;;;;10.13;6.20;;;14.50;52.50;;;;;;5057908;28;46362;-67
2022/08/08 00:49:41;;;;;;;10.93;6.87;;;14.50;52.40;;;;;;5060904;28;46460;-67
2022/08/08 00:52:38;;;;;;;9.60;6.37;;;14.50;52.20;;;;;;5062224;28;46492;-67
2022/08/08 00:55:12;;;;;;;8.87;6.57;;;14.50;52.50;;;;;;5060994;28;46422;-67
2022/08/08 00:58:08;;;;;;;10.80;7.10;;;14.50;52.30;;;;;;5059210;28;46382;-67
2022/08/08 01:00:49;;;;;;;12.93;6.47;;;14.50;52.30;;;;;;5062420;28;46433;-67
2022/08/08 01:03:45;;;;;;;10.23;6.87;;;14.50;52.30;;;;;;5058994;28;46409;-67
2022/08/08 01:06:52;;;;;;;8.20;6.30;;;14.50;53.00;;;;;;5060769;28;46381;-67
2022/08/08 01:09:37;;;;;;;9.37;5.97;;;14.50;53.00;;;;;;5062267;28;46398;-67
2022/08/08 01:12:38;;;;;;;7.63;6.27;;;14.50;52.70;;;;;;5061217;28;46295;-66
2022/08/08 01:15:36;;;;;;;11.60;7.00;;;14.50;52.90;;;;;;5061733;28;46512;-67
2022/08/08 01:18:16;;;;;;;9.83;7.73;;;14.60;53.00;;;;;;5061845;28;46318;-67
2022/08/08 01:20:53;;;;;;;9.30;6.77;;;14.60;52.80;;;;;;5062297;28;46457;-67
2022/08/08 01:23:44;;;;;;;18.27;6.73;;;14.60;52.80;;;;;;5061019;28;46420;-67
2022/08/08 01:26:32;;;;;;;10.10;6.63;;;14.60;52.20;;;;;;5061611;28;46472;-67
2022/08/08 01:29:03;;;;;;;12.03;7.23;;;14.50;53.30;;;;;;5059470;28;46286;-67
2022/08/08 01:32:02;;;;;;;11.23;7.70;;;14.50;53.40;;;;;;5052626;28;46559;-67
2022/08/08 01:34:33;;;;;;;8.00;5.80;;;14.50;54.00;;;;;;5058476;28;47111;-67
2022/08/08 01:37:23;;;;;;;8.20;5.70;;;14.40;53.90;;;;;;5058121;28;46379;-67
2022/08/08 01:40:07;;;;;;;13.10;6.60;;;14.40;55.30;;;;;;5061481;28;46391;-67
2022/08/08 01:42:49;;;;;;;9.60;6.50;;;14.40;54.30;;;;;;5063609;28;46361;-67
2022/08/08 01:45:44;;;;;;;8.67;5.87;;;14.40;54.30;;;;;;5060741;28;46362;-67
2022/08/08 01:48:28;;;;;;;7.87;5.80;;;14.30;54.30;;;;;;5058413;28;46445;-67
2022/08/08 01:51:16;;;;;;;8.73;6.70;;;14.30;54.60;;;;;;5059667;28;46579;-67
2022/08/08 01:54:20;;;;;;;11.60;7.03;;;13.90;54.10;;;;;;5058282;28;46418;-67
2022/08/08 01:57:04;;;;;;;8.60;6.57;;;14.20;55.00;;;;;;5027783;28;47529;-67
2022/08/08 02:00:03;;;;;;;8.57;6.20;;;14.20;55.50;;;;;;5059934;28;46591;-68
2022/08/08 02:02:56;;;;;;;8.40;6.27;;;14.20;55.50;;;;;;5059368;28;46500;-67
2022/08/08 02:05:44;;;;;;;10.20;6.47;;;14.20;55.20;;;;;;5060890;28;46332;-67
2022/08/08 02:08:31;;;;;;;9.00;6.53;;;14.20;55.30;;;;;;5058036;28;46046;-67
2022/08/08 02:11:19;;;;;;;9.07;6.87;;;14.20;55.40;;;;;;5058079;28;46716;-67
2022/08/08 02:14:03;;;;;;;10.10;6.80;;;14.20;54.20;;;;;;5056955;28;46436;-68
2022/08/08 02:17:05;;;;;;;9.20;6.33;;;14.20;55.40;;;;;;5060817;28;46548;-67
2022/08/08 02:19:54;;;;;;;8.77;6.40;;;14.10;55.50;;;;;;5056034;28;48096;-67
2022/08/08 02:22:39;;;;;;;9.53;6.73;;;14.00;55.30;;;;;;5059856;28;47088;-67
2022/08/08 02:25:33;;;;;;;11.77;7.40;;;13.90;55.20;;;;;;5059642;28;46409;-67
2022/08/08 02:28:01;;;;;;;10.30;6.47;;;13.90;55.20;;;;;;5059297;28;46542;-67
2022/08/08 02:30:38;;;;;;;12.17;6.80;;;13.90;55.20;;;;;;5059487;28;46967;-67
2022/08/08 02:33:35;;;;;;;9.20;5.93;;;13.90;55.20;;;;;;5058693;28;45866;-67
2022/08/08 02:36:35;;;;;;;11.30;5.43;;;13.90;54.20;;;;;;5059036;28;46471;-67
2022/08/08 02:39:03;;;;;;;8.43;5.73;;;13.90;55.20;;;;;;5058919;28;46465;-67
2022/08/08 02:41:38;;;;;;;9.27;6.33;;;13.80;55.10;;;;;;5059325;28;46255;-66
2022/08/08 02:44:25;;;;;;;17.13;6.30;;;13.70;55.00;;;;;;5059222;28;46425;-67
2022/08/08 02:47:06;;;;;;;7.40;6.30;;;13.60;55.90;;;;;;5058069;28;46296;-67
2022/08/08 02:49:54;;;;;;;7.50;5.60;;;13.50;56.20;;;;;;5058948;28;46449;-67
2022/08/08 02:52:38;;;;;;;9.43;6.57;;;13.40;56.60;;;;;;5060355;28;47022;-67
2022/08/08 02:55:31;;;;;;;11.00;6.50;;;13.40;55.80;;;;;;5058001;28;46691;-67
2022/08/08 02:58:27;;;;;;;8.50;6.40;;;13.40;56.80;;;;;;5058490;28;46443;-67
2022/08/08 03:01:08;;;;;;;9.17;6.97;;;13.40;56.80;;;;;;5061225;28;46438;-67
2022/08/08 03:04:12;;;;;;;9.80;6.87;;;13.30;56.60;;;;;;5060151;28;46655;-65
2022/08/08 03:07:05;;;;;;;11.40;7.80;;;13.40;56.90;;;;;;5059548;28;46444;-66
2022/08/08 03:09:45;;;;;;;10.37;6.83;;;13.40;56.70;;;;;;5059143;28;46527;-67
2022/08/08 03:12:32;;;;;;;12.00;8.07;;;13.40;56.70;;;;;;5061395;28;46448;-67
2022/08/08 03:15:10;;;;;;;10.80;7.30;;;13.40;56.70;;;;;;5057860;28;46358;-65
2022/08/08 03:18:04;;;;;;;10.70;7.53;;;13.40;56.50;;;;;;5060851;28;46322;-68
2022/08/08 03:20:43;;;;;;;9.00;7.43;;;13.50;56.60;;;;;;5064314;28;45989;-67
2022/08/08 03:23:08;;;;;;;11.17;6.90;;;13.50;56.40;;;;;;5057136;28;46454;-67
2022/08/08 03:25:35;;;;;;;14.83;8.93;;;13.50;55.40;;;;;;5059812;28;46362;-67
2022/08/08 03:28:05;;;;;;;9.63;7.90;;;13.50;56.40;;;;;;5063398;28;46386;-67
2022/08/08 03:30:31;;;;;;;13.30;8.50;;;13.50;56.30;;;;;;5062291;28;46533;-67
2022/08/08 03:35:41;;;;;;;9.27;6.27;;;13.40;55.80;;;;;;5062346;28;46421;-67
2022/08/08 03:38:08;;;;;;;8.33;5.80;;;13.30;57.10;;;;;;5063534;28;46303;-67
2022/08/08 03:40:34;;;;;;;8.33;6.07;;;13.20;57.20;;;;;;5062549;28;46833;-66
2022/08/08 03:43:00;;;;;;;8.00;5.90;;;13.00;57.40;;;;;;5064445;28;46366;-67
2022/08/08 03:45:28;;;;;;;8.27;6.30;;;13.00;57.70;;;;;;5062419;28;47295;-67
2022/08/08 03:48:04;;;;;;;10.10;6.73;;;12.90;57.70;;;;;;5062569;28;46386;-67
2022/08/08 03:50:31;;;;;;;12.33;7.70;;;12.80;57.80;;;;;;5062395;28;45854;-66
2022/08/08 03:53:04;;;;;;;12.47;7.00;;;12.80;57.80;;;;;;5064016;28;46393;-66
2022/08/08 03:55:29;;;;;;;9.37;7.27;;;12.80;56.90;;;;;;5062218;28;48099;-67
2022/08/08 03:57:56;;;;;;;10.70;6.83;;;12.90;57.80;;;;;;5062896;28;45784;-66
2022/08/08 04:00:23;;;;;;;9.70;7.20;;;12.90;57.70;;;;;;5062676;28;46408;-66
2022/08/08 04:03:00;;;;;;;12.83;9.07;;;12.90;57.70;;;;;;5064050;28;46383;-67
2022/08/08 04:05:31;;;;;;;10.30;7.67;;;12.90;56.70;;;;;;5063150;28;46513;-66
2022/08/08 04:07:58;;;;;;;9.70;7.40;;;12.90;57.60;;;;;;5061743;28;46306;-66
2022/08/08 04:10:24;;;;;;;13.93;8.37;;;13.00;57.50;;;;;;5062991;28;45852;-66
2022/08/08 04:12:49;;;;;;;10.60;7.87;;;12.90;57.60;;;;;;5061031;28;45927;-66
2022/08/08 04:15:15;;;;;;;15.53;8.53;;;12.90;57.70;;;;;;5060597;28;46359;-66
2022/08/08 04:17:41;;;;;;;14.20;8.73;;;12.90;57.80;;;;;;5061850;28;46394;-66
2022/08/08 04:20:07;;;;;;;14.90;9.10;;;12.90;57.80;;;;;;5063437;28;45863;-66
2022/08/08 04:22:33;;;;;;;9.90;7.90;;;13.00;57.70;;;;;;5062810;28;46336;-66
2022/08/08 04:24:59;;;;;;;16.33;8.30;;;13.10;56.90;;;;;;5060352;28;46471;-67
2022/08/08 04:27:25;;;;;;;9.63;7.80;;;13.10;57.80;;;;;;5061799;28;46536;-66
2022/08/08 04:29:51;;;;;;;14.40;8.40;;;13.10;57.80;;;;;;5062258;28;46276;-67
2022/08/08 04:32:17;;;;;;;9.43;7.67;;;13.10;57.90;;;;;;5062709;28;46234;-66
2022/08/08 04:34:43;;;;;;;10.00;6.90;;;13.20;56.90;;;;;;5063057;28;46617;-67
2022/08/08 04:37:10;;;;;;;10.57;7.90;;;13.20;57.80;;;;;;5062327;28;45877;-67
2022/08/08 04:39:36;;;;;;;12.20;8.23;;;13.20;57.70;;;;;;5058732;28;46486;-67
2022/08/08 04:42:02;;;;;;;10.67;7.33;;;13.30;57.70;;;;;;5059811;28;46014;-67
2022/08/08 04:44:28;;;;;;;10.60;7.37;;;13.40;57.60;;;;;;5061888;28;46475;-67
2022/08/08 04:46:54;;;;;;;9.60;7.03;;;13.50;57.40;;;;;;5062443;28;46394;-66
2022/08/08 04:49:19;;;;;;;10.53;6.90;;;13.50;57.30;;;;;;5061408;28;45902;-66
2022/08/08 04:51:45;;;;;;;8.63;6.80;;;13.60;57.20;;;;;;5061992;28;45997;-66
2022/08/08 04:54:10;;;;;;;10.73;6.30;;;13.70;57.10;;;;;;5062911;28;48058;-67
2022/08/08 04:56:36;;;;;;;9.73;6.40;;;13.80;57.00;;;;;;5061038;28;46269;-66
2022/08/08 04:59:02;;;;;;;8.00;6.10;;;13.90;56.90;;;;;;5062952;28;46401;-67
2022/08/08 05:01:28;;;;;;;12.93;6.77;;;14.10;56.60;;;;;;5062266;28;46433;-66
2022/08/08 05:03:53;;;;;;;8.30;6.00;;;14.30;55.20;;;;;;5061797;28;46664;-67
2022/08/08 05:06:19;;;;;;;6.63;5.67;;;14.30;56.10;;;;;;5061144;28;45869;-66
2022/08/08 05:08:46;;;;;;;6.90;4.40;;;14.80;56.10;;;;;;5061996;28;46458;-67
2022/08/08 05:11:12;;;;;;;6.77;5.00;;;16.20;56.40;;;;;;5060193;28;46461;-66
2022/08/08 05:13:42;;;;;;;11.40;4.87;;;17.20;54.00;;;;;;5061615;28;46698;-67
2022/08/08 05:16:08;;;;;;;6.30;4.50;;;18.20;50.70;;;;;;5062496;28;46437;-67
2022/08/08 05:18:35;;;;;;;6.17;4.27;;;19.20;49.50;;;;;;5060049;28;46421;-67
2022/08/08 05:21:03;;;;;;;6.43;4.70;;;20.20;47.60;;;;;;5063084;28;46457;-67
2022/08/08 05:23:29;;;;;;;6.60;5.23;;;21.20;44.70;;;;;;5059756;28;46799;-68
2022/08/08 05:25:55;;;;;;;12.00;5.57;;;22.00;40.00;;;;;;5062953;28;46377;-67
2022/08/08 05:28:21;;;;;;;7.17;5.43;;;22.60;38.80;;;;;;5061970;28;46308;-66
2022/08/08 05:30:46;;;;;;;6.57;5.17;;;23.20;36.50;;;;;;5062257;28;46366;-67
2022/08/08 05:33:12;;;;;;;8.40;4.67;;;23.40;34.20;;;;;;5058800;28;47186;-67
2022/08/08 05:35:41;;;;;;;7.10;4.37;;;23.90;32.80;;;;;;5062464;28;46512;-67
2022/08/08 05:38:07;;;;;;;7.90;4.50;;;24.20;31.20;;;;;;5061683;28;46401;-67
2022/08/08 05:40:34;;;;;;;5.50;4.50;;;24.40;30.40;;;;;;5060813;28;46321;-68
2022/08/08 05:43:06;;;;;;;8.70;4.90;;;24.40;29.50;;;;;;5062096;28;47367;-67
2022/08/08 05:45:35;;;;;;;7.90;4.87;;;24.80;28.10;;;;;;5060720;28;45806;-67
2022/08/08 05:48:02;;;;;;;7.80;4.47;;;25.30;26.10;;;;;;5060737;28;46456;-70
2022/08/08 05:50:29;;;;;;;5.67;4.33;;;25.40;25.50;;;;;;5061096;28;46516;-70
2022/08/08 05:52:56;;;;;;;7.63;4.30;;;25.60;25.30;;;;;;5055791;28;47242;-69
2022/08/08 05:55:22;;;;;;;5.00;4.20;;;25.70;24.50;;;;;;5055708;28;46485;-70
2022/08/08 05:57:51;;;;;;;6.70;4.17;;;26.10;23.10;;;;;;5061063;28;46597;-69
2022/08/08 06:00:17;;;;;;;5.70;3.70;;;26.30;21.90;;;;;;5063709;28;46076;-68
2022/08/08 06:05:33;;;;;;;7.20;4.20;;;26.30;21.10;;;;;;5061450;28;45803;-68
2022/08/08 06:08:00;;;;;;;7.10;4.13;;;26.70;20.20;;;;;;5059843;28;46402;-70
2022/08/08 06:10:31;;;;;;;5.40;4.10;;;27.20;18.90;;;;;;5059589;28;45827;-69
2022/08/08 06:12:58;;;;;;;6.23;4.10;;;27.30;18.20;;;;;;5057142;28;46463;-69
2022/08/08 06:15:25;;;;;;;6.80;3.70;;;27.50;17.80;;;;;;5058771;28;46369;-69
2022/08/08 06:17:54;;;;;;;4.50;3.90;;;27.50;17.40;;;;;;5059364;28;46416;-68
2022/08/08 06:20:20;;;;;;;7.53;3.40;;;27.40;17.20;;;;;;5059913;28;46008;-66
2022/08/08 06:22:45;;;;;;;10.73;3.70;;;27.70;16.90;;;;;;5057406;28;47253;-67
2022/08/08 06:25:11;;;;;;;5.23;3.20;;;27.90;16.40;;;;;;5060754;28;46402;-67
2022/08/08 06:27:51;;;;;;;9.00;3.63;;;28.20;15.80;;;;;;5059508;28;46448;-67
2022/08/08 06:30:18;;;;;;;4.20;2.87;;;28.50;15.10;;;;;;5059342;28;46889;-67
2022/08/08 06:32:47;;;;;;;7.83;3.70;;;27.50;17.50;;;;;;5059428;28;48134;-67
2022/08/08 06:35:14;;;;;;;11.87;3.70;;;25.90;21.30;;;;;;5057009;28;46402;-68
2022/08/08 06:37:46;;;;;;;6.93;2.70;;;24.90;22.80;;;;;;5060172;28;46390;-68
2022/08/08 06:40:14;;;;;;;8.67;3.70;;;24.00;23.20;;;;;;5058441;28;45957;-67
2022/08/08 06:42:45;;;;;;;6.30;3.20;;;24.20;22.10;;;;;;5059929;28;48104;-67
2022/08/08 06:45:12;;;;;;;4.50;2.90;;;25.30;18.50;;;;;;5059375;28;46412;-68
2022/08/08 06:47:38;;;;;;;4.20;3.07;;;26.00;15.90;;;;;;5058492;28;46360;-67
2022/08/08 06:50:05;;;;;;;18.73;4.07;;;26.50;14.80;;;;;;5058476;28;46388;-67
2022/08/08 06:52:31;;;;;;;5.57;3.50;;;26.80;13.90;;;;;;5058247;28;46386;-67
2022/08/08 06:54:59;;;;;;;5.07;3.23;;;27.20;13.20;;;;;;5059851;28;46393;-67
2022/08/08 06:57:25;;;;;;;6.23;3.17;;;27.60;12.60;;;;;;5057821;28;46481;-67
2022/08/08 06:59:52;;;;;;;9.03;3.37;;;27.50;12.50;;;;;;5058083;28;45982;-68
2022/08/08 07:02:26;;;;;;;6.27;2.93;;;27.60;12.20;;;;;;5058061;28;46945;-69
2022/08/08 07:04:54;;;;;;;5.57;2.60;;;27.50;11.70;;;;;;5057861;28;46314;-68
2022/08/08 07:07:43;;;;;;;9.77;3.10;;;27.30;11.90;;;;;;5056084;28;46455;-70
2022/08/08 07:10:10;;;;;;;12.90;3.60;;;26.20;14.80;;;;;;5045761;28;46443;-67
2022/08/08 07:12:44;;;;;;;9.73;3.60;;;24.60;18.00;;;;;;5059460;28;46533;-67
2022/08/08 07:15:12;;;;;;;5.30;3.40;;;23.70;20.40;;;;;;5055214;28;46771;-67
2022/08/08 07:17:48;;;;;;;6.07;3.30;;;23.10;22.30;;;;;;5058385;28;46354;-67
2022/08/08 07:20:28;;;;;;;5.30;3.10;;;22.70;23.80;;;;;;5058665;28;46311;-67
2022/08/08 07:23:03;;;;;;;8.57;3.23;;;22.40;24.10;;;;;;5059217;28;48267;-67
2022/08/08 07:25:33;;;;;;;6.43;3.70;;;22.10;24.70;;;;;;5057473;28;45886;-67
2022/08/08 07:28:11;;;;;;;9.10;3.37;;;22.10;24.70;;;;;;5058799;28;47007;-67
2022/08/08 07:30:37;;;;;;;5.57;3.40;;;21.90;25.10;;;;;;5057604;28;46622;-67
2022/08/08 07:33:03;;;;;;;6.50;3.20;;;21.90;25.30;;;;;;5059480;28;47021;-68
2022/08/08 07:35:29;;;;;;;5.60;3.57;;;22.00;25.20;;;;;;5058608;28;46490;-68
2022/08/08 07:37:59;;;;;;;5.03;3.33;;;22.10;25.10;;;;;;5057074;28;46410;-67
2022/08/08 07:40:26;;;;;;;4.93;3.43;;;22.00;25.30;;;;;;5058250;28;46476;-67
2022/08/08 07:42:52;;;;;;;4.80;3.27;;;22.20;25.30;;;;;;5058888;28;48051;-68
2022/08/08 07:45:22;;;;;;;11.43;3.83;;;22.10;25.50;;;;;;5056677;28;45878;-68
2022/08/08 07:47:48;;;;;;;7.87;3.50;;;22.00;25.60;;;;;;5058015;28;45919;-69
2022/08/08 07:50:14;;;;;;;4.20;2.93;;;21.80;25.50;;;;;;5058162;28;46812;-69
2022/08/08 07:52:45;;;;;;;8.37;3.30;;;21.90;25.40;;;;;;5057826;28;47525;-69
2022/08/08 07:55:26;;;;;;;8.17;3.50;;;22.00;25.40;;;;;;5056188;28;46349;-68
2022/08/08 07:58:29;;;;;;;4.40;3.20;;;22.20;25.10;;;;;;5056772;28;46425;-68
2022/08/08 08:01:09;;;;;;;8.53;3.37;;;22.20;25.00;;;;;;5054698;28;46737;-67
2022/08/08 08:03:49;;;;;;;8.00;3.70;;;22.40;24.80;;;;;;5058236;28;47103;-67
2022/08/08 08:06:18;;;;;;;5.43;3.40;;;22.20;25.20;;;;;;5057397;28;46385;-67
2022/08/08 08:09:02;;;;;;;8.03;3.63;;;22.30;25.20;;;;;;5057452;28;46529;-68
2022/08/08 08:11:32;;;;;;;6.23;3.67;;;22.10;25.00;;;;;;5058405;28;46559;-67
2022/08/08 08:14:07;;;;;;;6.37;4.00;;;22.40;23.90;;;;;;5061184;28;47110;-68
2022/08/08 08:16:37;;;;;;;9.00;3.50;;;22.40;24.80;;;;;;5060566;28;46462;-68
2022/08/08 08:19:05;;;;;;;10.20;3.57;;;22.50;24.80;;;;;;5058702;28;46564;-68
2022/08/08 08:21:37;;;;;;;9.70;3.63;;;22.60;24.70;;;;;;5061293;28;46414;-68
2022/08/08 08:24:04;;;;;;;7.00;3.27;;;22.40;23.40;;;;;;5060010;28;47350;-67
2022/08/08 08:26:29;;;;;;;5.37;3.37;;;22.50;24.30;;;;;;5060551;28;46371;-69
2022/08/08 08:28:55;;;;;;;5.67;3.20;;;22.50;24.60;;;;;;5061308;28;46423;-68
2022/08/08 08:31:21;;;;;;;5.90;3.83;;;22.50;24.20;;;;;;5060265;28;46504;-68
2022/08/08 08:33:46;;;;;;;4.70;3.63;;;22.70;23.50;;;;;;5058896;28;46515;-68
2022/08/08 08:36:12;;;;;;;4.60;2.80;;;22.70;24.40;;;;;;5060479;28;46452;-68
2022/08/08 08:38:39;;;;;;;7.67;3.47;;;22.80;24.10;;;;;;5060219;28;46987;-67
2022/08/08 08:41:07;;;;;;;5.50;3.00;;;22.80;24.40;;;;;;5060843;28;46320;-67
2022/08/08 08:43:33;;;;;;;5.30;2.83;;;22.60;24.30;;;;;;5060062;28;46346;-68
2022/08/08 08:46:00;;;;;;;7.37;2.97;;;22.70;24.30;;;;;;5061350;28;46522;-68
2022/08/08 08:48:26;;;;;;;5.67;3.33;;;23.00;23.90;;;;;;5058319;28;45884;-68
2022/08/08 08:50:53;;;;;;;7.37;3.37;;;23.10;23.30;;;;;;5059262;28;46406;-69
2022/08/08 08:53:20;;;;;;;7.13;3.60;;;23.00;23.20;;;;;;5058530;28;46346;-69
2022/08/08 08:55:48;;;;;;;4.63;2.97;;;23.00;23.10;;;;;;5060435;28;46652;-68
2022/08/08 08:58:26;;;;;;;6.80;3.30;;;23.00;23.30;;;;;;5058896;28;46529;-69
2022/08/08 09:00:52;;;;;;;6.00;3.60;;;23.00;23.20;;;;;;5060703;28;46467;-68
2022/08/08 09:03:21;;;;;;;6.73;3.73;;;23.10;23.30;;;;;;5058805;28;47114;-69
2022/08/08 09:05:47;;;;;;;4.63;2.70;;;23.10;23.20;;;;;;5061269;28;46404;-68
2022/08/08 09:08:15;;;;;;;4.23;2.63;;;23.20;22.70;;;;;;5061078;28;45898;-68
2022/08/08 09:10:42;;;;;;;6.20;3.50;;;23.20;22.30;;;;;;5060889;28;46279;-67
2022/08/08 09:13:08;;;;;;;11.77;3.17;;;23.10;22.10;;;;;;5061048;28;46512;-68
2022/08/08 09:15:34;;;;;;;7.73;2.70;;;23.10;22.50;;;;;;5058376;28;46347;-68
2022/08/08 09:18:01;;;;;;;7.37;3.47;;;23.10;22.50;;;;;;5060982;28;46393;-68
2022/08/08 09:20:27;;;;;;;5.40;3.00;;;23.00;22.60;;;;;;5057449;28;46405;-67
2022/08/08 09:22:54;;;;;;;4.93;2.60;;;23.20;22.30;;;;;;5060616;28;46437;-67
2022/08/08 09:25:20;;;;;;;4.73;2.73;;;23.40;22.10;;;;;;5057764;28;46453;-67
2022/08/08 09:27:46;;;;;;;5.87;3.30;;;23.40;21.30;;;;;;5058302;28;46510;-67
2022/08/08 09:30:13;;;;;;;5.90;2.47;;;23.20;21.30;;;;;;5060178;28;46548;-69
2022/08/08 09:32:50;;;;;;;8.50;3.30;;;23.10;21.60;;;;;;5058276;28;47225;-69
2022/08/08 09:35:24;;;;;;;8.50;3.53;;;23.10;21.70;;;;;;5059959;28;46287;-68
2022/08/08 09:37:52;;;;;;;9.00;3.30;;;23.20;21.80;;;;;;5055837;28;46539;-68
2022/08/08 09:40:23;;;;;;;5.03;3.10;;;23.40;21.40;;;;;;5059770;28;46795;-69
2022/08/08 09:42:53;;;;;;;9.70;3.30;;;23.40;21.20;;;;;;5056954;28;46711;-68
2022/08/08 09:45:20;;;;;;;4.00;2.70;;;23.50;21.00;;;;;;5058227;28;46417;-68
2022/08/08 09:47:47;;;;;;;7.90;2.80;;;23.60;20.40;;;;;;5059842;28;46551;-67
2022/08/08 09:50:20;;;;;;;5.33;3.70;;;23.70;20.20;;;;;;5059719;28;45961;-68
2022/08/08 09:52:51;;;;;;;5.23;2.80;;;23.70;20.00;;;;;;5058515;28;46480;-69
2022/08/08 09:55:19;;;;;;;6.53;3.27;;;23.80;20.00;;;;;;5057776;28;46528;-71
2022/08/08 09:57:50;;;;;;;4.43;2.70;;;24.00;20.00;;;;;;5054979;28;46319;-68
2022/08/08 10:00:21;;;;;;;6.10;3.10;;;24.50;19.90;;;;;;5062316;28;46431;-67
2022/08/08 10:02:51;;;;;;;4.90;2.90;;;24.60;19.40;;;;;;5057270;28;46649;-68
2022/08/08 10:05:23;;;;;;;5.43;2.83;;;24.60;19.10;;;;;;5059121;28;46405;-67
2022/08/08 10:07:51;;;;;;;7.67;2.50;;;24.50;18.90;;;;;;5059356;28;46443;-68
2022/08/08 10:10:28;;;;;;;3.70;2.40;;;24.40;18.20;;;;;;5060167;28;46418;-68
2022/08/08 10:12:55;;;;;;;5.60;2.40;;;24.60;18.10;;;;;;5057641;28;46374;-68
2022/08/08 10:15:25;;;;;;;4.20;2.43;;;24.70;17.70;;;;;;5058820;28;46436;-69
2022/08/08 10:17:53;;;;;;;4.23;2.40;;;24.80;17.50;;;;;;5059810;28;46433;-66
2022/08/08 10:20:20;;;;;;;10.60;3.13;;;24.70;17.70;;;;;;5056000;28;46632;-69
2022/08/08 10:22:58;;;;;;;5.60;2.23;;;24.90;17.80;;;;;;5060083;28;46446;-68
2022/08/08 10:25:25;;;;;;;7.13;2.30;;;24.90;17.40;;;;;;5058736;28;46351;-68
2022/08/08 10:27:52;;;;;;;4.30;2.83;;;24.80;17.20;;;;;;5059678;28;45827;-69
2022/08/08 10:30:20;;;;;;;6.90;2.43;;;24.50;17.40;;;;;;5058054;28;46393;-68
2022/08/08 10:32:55;;;;;;;4.83;2.57;;;24.60;17.20;;;;;;5059527;28;46502;-67
2022/08/08 10:35:24;;;;;;;4.07;2.60;;;24.70;17.40;;;;;;5056780;28;46659;-70
2022/08/08 10:37:56;;;;;;;5.80;2.77;;;24.80;16.70;;;;;;5058841;28;46426;-69
2022/08/08 10:40:25;;;;;;;8.20;2.67;;;24.80;16.50;;;;;;5058638;28;46490;-70
2022/08/08 10:42:55;;;;;;;7.90;2.60;;;24.90;16.80;;;;;;5057631;28;46432;-71
2022/08/08 10:45:21;;;;;;;3.90;2.60;;;24.90;16.80;;;;;;5059674;28;46629;-68
2022/08/08 10:47:58;;;;;;;9.63;2.63;;;24.50;16.90;;;;;;5058779;28;46477;-68
2022/08/08 10:50:32;;;;;;;6.57;2.20;;;24.30;17.50;;;;;;5057596;28;46505;-69
2022/08/08 10:53:06;;;;;;;9.37;2.30;;;24.40;17.30;;;;;;5057342;28;47509;-68
2022/08/08 10:55:32;;;;;;;4.50;2.40;;;24.20;17.50;;;;;;5060079;28;46437;-69
2022/08/08 10:58:04;;;;;;;8.13;2.10;;;24.50;18.30;;;;;;5059182;28;46437;-69
2022/08/08 11:00:31;;;;;;;5.03;2.20;;;24.90;16.70;;;;;;5058405;28;46453;-69
2022/08/08 11:03:08;;;;;;;3.40;2.20;;;24.90;15.50;;;;;;5058394;28;46385;-70
2022/08/08 11:05:46;;;;;;;3.43;2.47;;;25.00;15.50;;;;;;5056900;28;46339;-70
2022/08/08 11:08:20;;;;;;;4.90;2.40;;;25.10;15.40;;;;;;5057341;28;46408;-71
2022/08/08 11:10:46;;;;;;;6.03;2.37;;;25.20;15.60;;;;;;5057572;28;46463;-71
2022/08/08 11:13:19;;;;;;;4.97;2.40;;;25.50;15.10;;;;;;5055039;28;48303;-69
2022/08/08 11:15:46;;;;;;;6.93;2.43;;;25.60;15.20;;;;;;5058037;28;46393;-69
2022/08/08 11:18:12;;;;;;;5.00;2.43;;;25.80;15.30;;;;;;5058887;28;46397;-69
2022/08/08 11:20:38;;;;;;;7.20;2.50;;;25.60;15.20;;;;;;5058567;28;46698;-70
2022/08/08 11:23:05;;;;;;;6.50;2.10;;;25.50;15.10;;;;;;5059465;28;47321;-70
2022/08/08 11:25:32;;;;;;;3.90;2.33;;;25.40;15.10;;;;;;5057704;28;46613;-70
2022/08/08 11:28:02;;;;;;;5.60;2.17;;;25.50;14.90;;;;;;5059584;28;46452;-70
2022/08/08 11:30:33;;;;;;;3.50;2.43;;;25.60;14.00;;;;;;5059049;28;46472;-69
2022/08/08 11:33:01;;;;;;;5.37;2.63;;;25.60;13.90;;;;;;5058388;28;46802;-68
2022/08/08 11:35:27;;;;;;;3.83;2.00;;;25.50;13.70;;;;;;5057548;28;46630;-69
2022/08/08 11:37:53;;;;;;;4.60;2.40;;;25.60;13.70;;;;;;5058848;28;46283;-69
2022/08/08 11:40:19;;;;;;;4.67;2.57;;;25.60;13.80;;;;;;5057989;28;46618;-69
2022/08/08 11:42:44;;;;;;;4.07;2.60;;;25.70;13.70;;;;;;5057090;28;46210;-69
2022/08/08 11:45:11;;;;;;;4.80;2.63;;;25.60;13.60;;;;;;5056776;28;46501;-69
2022/08/08 11:47:38;;;;;;;6.10;2.47;;;25.40;13.80;;;;;;5059093;28;46445;-67
2022/08/08 11:50:08;;;;;;;4.97;2.47;;;25.30;14.20;;;;;;5061873;28;46367;-69
2022/08/08 11:52:35;;;;;;;6.40;2.53;;;25.50;14.00;;;;;;5060926;28;46442;-69
2022/08/08 11:55:01;;;;;;;10.00;2.17;;;25.40;14.20;;;;;;5062043;28;46481;-69
2022/08/08 11:57:28;;;;;;;5.80;2.60;;;25.20;14.50;;;;;;5058833;28;46421;-68
2022/08/08 11:59:57;;;;;;;7.00;2.80;;;24.90;14.80;;;;;;5059669;28;46425;-69
2022/08/08 12:02:25;;;;;;;5.40;2.53;;;24.90;14.80;;;;;;5060993;28;47064;-68
2022/08/08 12:05:09;;;;;;;6.70;2.60;;;25.20;14.90;;;;;;5062634;28;46406;-69
2022/08/08 12:07:54;;;;;;;9.60;2.80;;;25.50;14.10;;;;;;5062024;28;46338;-68
2022/08/08 12:10:24;;;;;;;5.20;2.30;;;25.60;13.50;;;;;;5060614;28;46414;-68
2022/08/08 12:13:03;;;;;;;5.80;2.50;;;25.40;13.70;;;;;;5062104;28;46382;-68
2022/08/08 12:15:31;;;;;;;4.50;2.27;;;25.10;14.00;;;;;;5061409;28;46515;-67
2022/08/08 12:17:57;;;;;;;3.70;2.20;;;24.80;14.70;;;;;;5058706;28;45815;-67
2022/08/08 12:20:23;;;;;;;4.80;2.17;;;24.60;14.60;;;;;;5062746;28;46539;-67
2022/08/08 12:22:52;;;;;;;5.23;2.20;;;24.90;14.80;;;;;;5068695;28;46987;-68
2022/08/08 12:25:20;;;;;;;6.30;2.63;;;25.20;14.90;;;;;;5070942;28;46315;-68
2022/08/08 12:27:46;;;;;;;4.50;2.60;;;25.40;14.40;;;;;;5061963;28;46612;-69
2022/08/08 12:30:12;;;;;;;6.23;2.70;;;25.50;14.60;;;;;;5061665;28;46436;-67
2022/08/08 12:32:43;;;;;;;5.27;2.80;;;25.20;14.90;;;;;;5060352;28;47074;-70
2022/08/08 12:35:22;;;;;;;5.10;2.03;;;25.00;14.80;;;;;;5061883;28;46472;-70
2022/08/08 12:38:04;;;;;;;7.63;2.50;;;24.90;14.90;;;;;;5060144;28;46397;-70
2022/08/08 12:40:39;;;;;;;4.20;2.23;;;24.60;15.20;;;;;;5060466;28;46497;-70
2022/08/08 12:43:05;;;;;;;6.60;2.57;;;24.60;15.60;;;;;;5060828;28;46432;-68
2022/08/08 12:45:41;;;;;;;3.50;2.17;;;24.90;15.10;;;;;;5062750;28;46424;-69
2022/08/08 12:48:18;;;;;;;4.50;2.30;;;24.90;14.80;;;;;;5060698;28;46623;-69
2022/08/08 12:50:45;;;;;;;7.53;2.40;;;25.10;14.90;;;;;;5061644;28;46529;-69
2022/08/08 12:53:24;;;;;;;3.33;1.87;;;25.30;14.80;;;;;;5060840;28;47054;-69
2022/08/08 12:56:01;;;;;;;5.40;2.20;;;25.50;14.40;;;;;;5060948;28;46420;-69
2022/08/08 12:58:28;;;;;;;8.80;2.40;;;25.60;14.50;;;;;;5058877;28;46539;-68
2022/08/08 13:01:05;;;;;;;3.97;2.17;;;25.70;14.00;;;;;;5060957;28;46346;-71
2022/08/08 13:03:32;;;;;;;4.17;2.10;;;25.80;14.20;;;;;;5061292;28;46484;-68
2022/08/08 13:06:06;;;;;;;3.90;2.17;;;25.80;14.20;;;;;;5057593;28;45902;-67
2022/08/08 13:08:50;;;;;;;3.20;2.10;;;25.60;14.10;;;;;;5061058;28;46323;-70
2022/08/08 13:11:25;;;;;;;5.73;2.40;;;25.20;14.10;;;;;;5060397;28;46680;-68
2022/08/08 13:14:03;;;;;;;6.17;2.20;;;25.10;13.90;;;;;;5058697;28;46418;-70
2022/08/08 13:16:32;;;;;;;5.00;2.30;;;25.10;14.50;;;;;;5060352;28;46464;-70
2022/08/08 13:18:59;;;;;;;5.53;2.50;;;25.20;14.30;;;;;;5060503;28;46506;-69
2022/08/08 13:21:24;;;;;;;5.10;2.83;;;25.30;13.70;;;;;;5061961;28;46094;-70